Time;durP1;ratioP1;P1;durP2;ratioP2;P2;SDS_P1;SDS_P2;PMS_P1;PMS_P2;Temp;Humidity;BMP_temperature;BMP_pressure;BME280_temperature;BME280_humidity;BME280_pressure;Samples;Min_cycle;Max_cycle;Signal;HPM_P1;HPM_P2
2022/04/28 00:01:28;;;;;;;12.02;5.28;;;7.40;86.90;;;;;;5035709;28;20017;-89
2022/04/28 00:03:54;;;;;;;11.18;6.20;;;7.40;87.10;;;;;;5036237;28;20407;-90
2022/04/28 00:06:20;;;;;;;21.48;6.60;;;7.30;87.30;;;;;;5035730;28;20496;-90
2022/04/28 00:08:46;;;;;;;10.52;5.55;;;7.40;87.50;;;;;;5035729;28;20025;-90
2022/04/28 00:11:11;;;;;;;16.52;6.35;;;7.40;87.60;;;;;;5035880;28;20143;-90
2022/04/28 00:13:38;;;;;;;15.85;6.43;;;7.40;87.70;;;;;;5036125;28;20425;-90
2022/04/28 00:16:04;;;;;;;9.88;5.57;;;7.30;87.60;;;;;;5035828;28;20025;-90
2022/04/28 00:18:30;;;;;;;13.82;5.68;;;7.30;87.80;;;;;;5025017;28;20040;-89
2022/04/28 00:20:56;;;;;;;23.00;6.75;;;7.30;88.00;;;;;;5047411;28;20017;-89
2022/04/28 00:23:21;;;;;;;13.02;6.18;;;7.30;88.00;;;;;;5036905;28;20021;-90
2022/04/28 00:25:47;;;;;;;18.05;6.57;;;7.20;88.20;;;;;;5035969;28;20048;-90
2022/04/28 00:28:13;;;;;;;13.50;6.30;;;7.20;88.40;;;;;;5035770;28;20144;-89
2022/04/28 00:30:40;;;;;;;19.65;6.35;;;7.20;88.50;;;;;;5036338;28;20057;-89
2022/04/28 00:33:06;;;;;;;14.30;6.20;;;7.20;88.50;;;;;;5036360;28;20025;-91
2022/04/28 00:35:32;;;;;;;19.95;7.63;;;7.20;88.70;;;;;;5038477;28;20182;-89
2022/04/28 00:37:57;;;;;;;13.45;5.85;;;7.10;88.70;;;;;;5059701;28;20037;-90
2022/04/28 00:40:23;;;;;;;19.10;7.55;;;7.10;88.80;;;;;;5039345;28;20013;-89
2022/04/28 00:42:49;;;;;;;13.20;7.30;;;7.10;89.00;;;;;;5039607;28;20432;-89
2022/04/28 00:45:14;;;;;;;23.65;7.47;;;7.00;89.10;;;;;;5047967;28;20020;-89
2022/04/28 00:50:41;;;;;;;18.33;6.80;;;7.10;89.60;;;;;;5057066;28;20484;-90
2022/04/28 00:53:12;;;;;;;13.07;6.43;;;7.10;89.70;;;;;;5039677;28;20029;-90
2022/04/28 00:55:38;;;;;;;17.40;6.47;;;7.10;89.70;;;;;;5037955;28;20478;-90
2022/04/28 00:58:05;;;;;;;16.95;7.57;;;7.10;90.00;;;;;;5040765;28;20040;-89
2022/04/28 01:00:31;;;;;;;16.88;6.93;;;7.10;90.00;;;;;;5042184;28;20043;-89
2022/04/28 01:02:57;;;;;;;15.23;6.78;;;7.10;90.00;;;;;;5044904;28;20021;-89
2022/04/28 01:05:22;;;;;;;18.85;6.88;;;7.10;90.10;;;;;;5049923;28;20020;-89
2022/04/28 01:07:48;;;;;;;15.05;6.65;;;7.00;90.10;;;;;;5050503;28;20021;-89
2022/04/28 01:10:15;;;;;;;15.27;6.00;;;7.10;90.20;;;;;;5047417;28;20048;-89
2022/04/28 01:12:41;;;;;;;14.00;6.68;;;7.00;90.20;;;;;;5044555;28;20477;-89
2022/04/28 01:15:08;;;;;;;14.82;7.22;;;7.00;90.20;;;;;;5065974;28;20017;-89
2022/04/28 01:17:33;;;;;;;14.63;6.40;;;7.00;90.30;;;;;;5037542;28;20036;-89
2022/04/28 01:19:59;;;;;;;19.80;6.57;;;7.00;90.30;;;;;;5038609;28;20021;-89
2022/04/28 01:22:26;;;;;;;16.85;6.50;;;6.90;90.40;;;;;;5038278;28;20021;-90
2022/04/28 01:24:52;;;;;;;17.15;6.35;;;6.90;90.50;;;;;;5057318;28;20025;-89
2022/04/28 01:27:18;;;;;;;17.30;6.63;;;6.90;90.60;;;;;;5038451;28;20025;-90
2022/04/28 01:29:47;;;;;;;16.42;7.40;;;6.90;90.60;;;;;;5038443;28;20482;-89
2022/04/28 01:32:12;;;;;;;16.23;6.25;;;6.90;90.70;;;;;;5035424;28;20639;-89
2022/04/28 01:34:38;;;;;;;16.10;6.30;;;6.90;90.80;;;;;;5038306;28;20021;-89
2022/04/28 01:37:04;;;;;;;14.32;6.90;;;6.90;90.90;;;;;;5038067;28;20469;-90
2022/04/28 01:39:29;;;;;;;9.65;5.80;;;6.90;90.90;;;;;;5037931;28;20056;-89
2022/04/28 01:41:55;;;;;;;15.50;5.65;;;6.90;91.00;;;;;;5037841;28;20596;-89
2022/04/28 01:44:20;;;;;;;14.88;6.00;;;7.00;91.10;;;;;;5038398;28;20019;-90
2022/04/28 01:46:46;;;;;;;14.98;5.78;;;7.00;91.20;;;;;;5038165;28;20514;-89
2022/04/28 01:49:12;;;;;;;12.10;6.13;;;7.00;91.30;;;;;;5037170;28;20071;-88
2022/04/28 01:57:06;;;;;;;11.57;6.18;;;6.90;91.30;;;;;;5015419;28;20076;-89
2022/04/28 01:59:32;;;;;;;19.00;6.82;;;6.90;91.40;;;;;;5014582;28;20404;-89
2022/04/28 02:01:58;;;;;;;15.88;6.60;;;6.90;91.50;;;;;;5014311;28;20066;-89
2022/04/28 02:04:24;;;;;;;11.95;6.90;;;7.00;91.60;;;;;;5014249;28;20041;-89
2022/04/28 02:06:49;;;;;;;13.73;6.57;;;7.00;91.60;;;;;;5014303;28;20072;-89
2022/04/28 02:09:15;;;;;;;11.13;6.82;;;6.90;91.70;;;;;;5016117;28;20025;-88
2022/04/28 02:11:41;;;;;;;15.05;7.30;;;7.00;91.80;;;;;;5015626;28;20418;-89
2022/04/28 02:14:06;;;;;;;18.35;8.85;;;7.00;91.80;;;;;;5015087;28;20468;-89
2022/04/28 02:16:32;;;;;;;16.02;7.18;;;7.00;91.90;;;;;;5019943;28;20026;-89
2022/04/28 02:18:58;;;;;;;13.63;6.80;;;6.90;91.80;;;;;;5026466;28;20155;-89
2022/04/28 02:21:23;;;;;;;15.30;6.63;;;6.90;92.00;;;;;;5017603;28;20048;-88
2022/04/28 02:23:49;;;;;;;16.70;7.70;;;7.00;92.10;;;;;;5017556;28;20089;-89
2022/04/28 02:26:15;;;;;;;12.38;7.20;;;7.00;92.10;;;;;;5014845;28;20025;-90
2022/04/28 02:28:41;;;;;;;11.80;6.45;;;7.00;92.10;;;;;;5016655;28;20025;-88
2022/04/28 02:31:07;;;;;;;17.55;7.38;;;6.90;92.20;;;;;;5014278;28;20045;-89
2022/04/28 02:33:32;;;;;;;17.98;6.78;;;7.00;92.20;;;;;;5013568;28;20100;-89
2022/04/28 02:35:58;;;;;;;16.70;7.18;;;6.90;92.20;;;;;;5013320;28;20161;-88
2022/04/28 02:38:24;;;;;;;12.10;6.50;;;7.00;92.30;;;;;;5013431;28;20030;-87
2022/04/28 02:40:49;;;;;;;20.02;8.05;;;7.00;92.30;;;;;;5013337;28;20037;-89
2022/04/28 02:43:15;;;;;;;13.85;6.13;;;6.90;92.40;;;;;;5013696;28;20018;-89
2022/04/28 02:45:41;;;;;;;11.48;6.63;;;6.90;92.40;;;;;;5013635;28;20018;-89
2022/04/28 02:48:07;;;;;;;14.27;7.13;;;6.90;92.50;;;;;;5013309;28;20076;-89
2022/04/28 02:50:32;;;;;;;22.05;6.70;;;6.90;92.90;;;;;;5019148;28;20037;-90
2022/04/28 02:52:58;;;;;;;13.60;6.10;;;6.90;92.70;;;;;;5036457;28;20470;-89
2022/04/28 02:55:24;;;;;;;14.45;5.50;;;6.80;92.80;;;;;;5036106;28;20086;-90
2022/04/28 02:57:50;;;;;;;15.30;5.97;;;6.80;92.90;;;;;;5036251;28;20033;-91
2022/04/28 03:00:16;;;;;;;12.15;6.20;;;6.90;93.00;;;;;;5036058;28;20066;-88
2022/04/28 03:02:41;;;;;;;12.93;5.70;;;6.90;93.00;;;;;;5035490;28;20509;-89
2022/04/28 03:05:07;;;;;;;10.75;5.30;;;6.90;93.10;;;;;;5035953;28;20031;-92
2022/04/28 03:10:49;;;;;;;12.20;5.88;;;6.80;93.20;;;;;;5053044;28;20421;-89
2022/04/28 03:13:17;;;;;;;15.20;6.00;;;6.90;93.20;;;;;;5036233;28;20020;-90
2022/04/28 03:15:45;;;;;;;15.52;6.07;;;6.80;93.30;;;;;;5036159;28;20466;-88
2022/04/28 03:18:12;;;;;;;11.88;6.30;;;6.80;93.30;;;;;;5036099;28;20025;-89
2022/04/28 03:20:38;;;;;;;14.60;6.25;;;6.80;93.40;;;;;;5035954;28;20029;-90
2022/04/28 03:23:03;;;;;;;16.63;6.38;;;6.80;93.50;;;;;;5036457;28;20028;-90
2022/04/28 03:25:29;;;;;;;16.75;6.35;;;6.80;93.60;;;;;;5036229;28;20104;-89
2022/04/28 03:27:56;;;;;;;10.93;6.10;;;6.80;93.60;;;;;;5036145;28;20536;-89
2022/04/28 03:30:22;;;;;;;18.92;7.25;;;6.80;93.70;;;;;;5036463;28;20021;-89
2022/04/28 03:32:48;;;;;;;14.70;6.35;;;6.80;93.80;;;;;;5049808;28;20131;-89
2022/04/28 03:35:14;;;;;;;15.75;6.10;;;6.80;93.80;;;;;;5036007;28;20048;-90
2022/04/28 03:37:40;;;;;;;13.70;6.43;;;6.80;93.90;;;;;;5037072;28;20025;-89
2022/04/28 03:40:07;;;;;;;12.57;7.78;;;6.80;94.00;;;;;;5036412;28;20059;-89
2022/04/28 03:42:33;;;;;;;14.45;6.50;;;6.80;94.10;;;;;;5061268;28;20025;-89
2022/04/28 03:44:59;;;;;;;11.18;5.90;;;6.80;94.10;;;;;;5035955;28;20021;-89
2022/04/28 03:47:24;;;;;;;11.80;6.57;;;6.80;94.20;;;;;;5060188;28;20029;-88
2022/04/28 03:49:50;;;;;;;12.50;7.05;;;6.80;94.30;;;;;;5035701;28;20485;-89
2022/04/28 03:52:16;;;;;;;15.55;6.32;;;6.80;94.30;;;;;;5060493;28;20044;-89
2022/04/28 03:54:43;;;;;;;12.10;6.15;;;6.80;94.30;;;;;;5035826;28;20024;-89
2022/04/28 03:57:08;;;;;;;13.90;6.63;;;6.70;94.30;;;;;;5036139;28;20037;-89
2022/04/28 03:59:34;;;;;;;13.52;6.18;;;6.70;94.50;;;;;;5038225;28;20025;-87
2022/04/28 04:01:59;;;;;;;14.23;6.40;;;6.70;94.50;;;;;;5049273;28;20545;-89
2022/04/28 04:04:25;;;;;;;15.90;6.30;;;6.70;94.60;;;;;;5047176;28;20124;-88
2022/04/28 04:06:51;;;;;;;17.48;6.20;;;6.70;94.70;;;;;;5046575;28;20478;-89
2022/04/28 04:09:16;;;;;;;12.68;6.05;;;6.70;94.70;;;;;;5050281;28;20028;-89
2022/04/28 04:11:42;;;;;;;10.23;6.30;;;6.70;94.70;;;;;;5050519;28;20033;-88
2022/04/28 04:14:08;;;;;;;10.88;5.90;;;6.70;94.70;;;;;;5051346;28;20424;-88
2022/04/28 04:16:33;;;;;;;10.98;6.78;;;6.70;94.80;;;;;;5041467;28;20029;-89
2022/04/28 04:18:59;;;;;;;15.98;7.13;;;6.70;94.80;;;;;;5040566;28;20017;-88
2022/04/28 04:21:25;;;;;;;16.67;6.90;;;6.70;94.90;;;;;;5039517;28;20040;-89
2022/04/28 04:23:51;;;;;;;14.73;6.57;;;6.70;94.90;;;;;;5038970;28;20013;-89
2022/04/28 04:26:17;;;;;;;14.77;6.60;;;6.80;95.00;;;;;;5038872;28;20036;-89
2022/04/28 04:28:42;;;;;;;14.65;7.35;;;6.70;95.00;;;;;;5038491;28;20097;-88
2022/04/28 04:33:52;;;;;;;15.95;7.50;;;6.70;95.10;;;;;;5056350;28;20067;-88
2022/04/28 04:36:18;;;;;;;22.02;7.32;;;6.70;95.20;;;;;;5038668;28;20025;-88
2022/04/28 04:38:43;;;;;;;16.30;7.00;;;6.70;95.20;;;;;;5038406;28;20438;-89
2022/04/28 04:41:11;;;;;;;13.80;7.65;;;6.70;95.20;;;;;;5038255;28;20378;-88
2022/04/28 04:43:40;;;;;;;17.10;7.68;;;6.70;95.30;;;;;;5037807;28;20405;-89
2022/04/28 04:46:06;;;;;;;20.23;7.22;;;6.60;95.40;;;;;;5037496;28;20025;-88
2022/04/28 04:48:31;;;;;;;20.02;7.40;;;6.60;95.40;;;;;;5038245;28;20025;-89
2022/04/28 04:50:57;;;;;;;12.93;7.13;;;6.70;95.50;;;;;;5060874;28;20045;-87
2022/04/28 04:53:23;;;;;;;14.13;7.55;;;6.60;95.50;;;;;;5049428;28;20101;-88
2022/04/28 04:55:49;;;;;;;14.10;7.50;;;6.60;95.60;;;;;;5046944;28;20025;-88
2022/04/28 04:58:15;;;;;;;15.02;7.57;;;6.60;95.70;;;;;;5039515;28;20452;-88
2022/04/28 05:00:41;;;;;;;13.38;7.35;;;6.60;95.70;;;;;;5039414;28;20478;-88
2022/04/28 05:03:07;;;;;;;13.88;8.13;;;6.60;95.80;;;;;;5040546;28;20021;-88
2022/04/28 05:05:32;;;;;;;11.48;7.30;;;6.60;95.80;;;;;;5039193;28;20428;-89
2022/04/28 05:07:58;;;;;;;13.70;7.32;;;6.60;95.90;;;;;;5062104;28;20078;-89
2022/04/28 05:10:24;;;;;;;12.68;7.40;;;6.60;96.00;;;;;;5039128;28;20050;-89
2022/04/28 05:12:50;;;;;;;15.25;7.60;;;6.60;96.00;;;;;;5038279;28;20040;-90
2022/04/28 05:15:16;;;;;;;15.13;7.65;;;6.70;96.10;;;;;;5038104;28;20025;-88
2022/04/28 05:17:41;;;;;;;14.20;7.30;;;6.60;96.10;;;;;;5038431;28;20027;-89
2022/04/28 05:20:08;;;;;;;12.45;6.93;;;6.70;96.10;;;;;;5038229;28;20535;-89
2022/04/28 05:22:34;;;;;;;12.52;6.88;;;6.70;96.20;;;;;;5022182;28;20021;-89
2022/04/28 05:25:00;;;;;;;14.77;8.43;;;6.70;96.20;;;;;;5060830;28;20061;-88
2022/04/28 05:27:26;;;;;;;11.15;6.95;;;6.70;96.20;;;;;;5038858;28;20021;-89
2022/04/28 05:29:52;;;;;;;15.30;7.80;;;6.70;96.20;;;;;;5038097;28;20059;-89
2022/04/28 05:32:18;;;;;;;16.65;7.15;;;6.70;96.20;;;;;;5037213;28;20032;-89
2022/04/28 05:34:44;;;;;;;10.25;6.32;;;6.70;96.20;;;;;;5037515;28;20466;-88
2022/04/28 05:37:12;;;;;;;17.48;7.80;;;6.70;96.20;;;;;;5037446;28;20033;-88
2022/04/28 05:39:40;;;;;;;16.85;7.40;;;6.70;96.20;;;;;;5020933;28;20028;-89
2022/04/28 05:42:07;;;;;;;18.60;7.60;;;6.80;96.20;;;;;;5037286;28;20036;-89
2022/04/28 05:47:24;;;;;;;14.65;7.65;;;6.80;96.20;;;;;;5054590;28;20032;-88
2022/04/28 05:49:50;;;;;;;15.52;7.55;;;6.80;96.20;;;;;;5036803;28;20036;-89
2022/04/28 05:52:16;;;;;;;16.85;7.50;;;6.80;96.10;;;;;;5036022;28;20048;-89
2022/04/28 05:54:41;;;;;;;16.67;8.50;;;6.80;96.20;;;;;;5036677;28;20024;-88
2022/04/28 05:57:07;;;;;;;17.13;7.18;;;6.80;96.30;;;;;;5036343;28;20032;-89
2022/04/28 05:59:33;;;;;;;13.55;7.43;;;6.80;96.30;;;;;;5037021;28;20382;-88
2022/04/28 06:01:59;;;;;;;12.35;7.60;;;6.80;96.20;;;;;;5036842;28;20016;-89
2022/04/28 06:04:25;;;;;;;13.73;7.47;;;6.80;96.30;;;;;;5036712;28;20029;-89
2022/04/28 06:06:51;;;;;;;18.45;8.50;;;6.80;96.30;;;;;;5036836;28;20029;-89
2022/04/28 06:09:16;;;;;;;15.10;7.65;;;6.80;96.30;;;;;;5037272;28;20036;-90
2022/04/28 06:11:43;;;;;;;11.88;6.97;;;6.80;96.40;;;;;;5037581;28;20059;-89
2022/04/28 06:14:08;;;;;;;15.50;7.20;;;6.80;96.40;;;;;;5049493;28;20051;-88
2022/04/28 06:16:34;;;;;;;13.15;7.32;;;6.90;96.40;;;;;;5065653;28;20021;-90
2022/04/28 06:19:00;;;;;;;14.77;7.63;;;6.90;96.40;;;;;;5044116;28;20044;-90
2022/04/28 06:21:26;;;;;;;13.38;7.15;;;6.90;96.40;;;;;;5042097;28;20021;-89
2022/04/28 06:23:52;;;;;;;14.52;7.15;;;6.90;96.40;;;;;;5038178;28;20044;-89
2022/04/28 06:26:17;;;;;;;16.67;7.97;;;7.00;96.40;;;;;;5037652;28;20029;-88
2022/04/28 06:28:43;;;;;;;20.63;8.07;;;7.00;96.40;;;;;;5062227;28;20025;-89
2022/04/28 06:31:09;;;;;;;17.55;7.95;;;7.00;96.40;;;;;;5037230;28;20127;-90
2022/04/28 06:33:39;;;;;;;12.40;7.05;;;7.00;96.30;;;;;;5036736;28;20032;-88
2022/04/28 06:36:04;;;;;;;17.20;7.47;;;7.00;96.60;;;;;;5035746;28;20478;-89
2022/04/28 06:38:30;;;;;;;13.48;7.75;;;7.10;96.30;;;;;;5036749;28;20024;-88
2022/04/28 06:40:56;;;;;;;11.70;7.15;;;7.10;96.30;;;;;;5035163;28;20040;-89
2022/04/28 06:43:22;;;;;;;16.77;7.70;;;7.10;96.30;;;;;;5035616;28;20021;-88
2022/04/28 06:48:31;;;;;;;13.27;7.53;;;7.20;96.20;;;;;;5053804;28;20087;-88
2022/04/28 06:50:57;;;;;;;12.73;6.72;;;7.20;96.20;;;;;;5061122;28;20070;-88
2022/04/28 06:53:24;;;;;;;13.00;7.13;;;7.20;96.20;;;;;;5038279;28;20021;-88
2022/04/28 06:55:49;;;;;;;11.98;7.50;;;7.20;96.10;;;;;;5040500;28;20028;-88
2022/04/28 06:58:15;;;;;;;12.10;8.02;;;7.30;96.10;;;;;;5062341;28;20021;-89
2022/04/28 07:00:41;;;;;;;15.35;7.60;;;7.30;96.00;;;;;;5045985;28;20022;-88
2022/04/28 07:03:10;;;;;;;16.23;7.05;;;7.30;95.90;;;;;;5049857;28;20024;-88
2022/04/28 07:05:38;;;;;;;11.48;6.85;;;7.30;96.00;;;;;;5072892;28;20025;-88
2022/04/28 07:08:05;;;;;;;12.18;7.10;;;7.30;96.00;;;;;;5045974;28;20020;-89
2022/04/28 07:10:31;;;;;;;13.25;6.28;;;7.30;96.00;;;;;;5055337;28;20032;-89
2022/04/28 07:12:57;;;;;;;11.57;5.88;;;7.30;95.90;;;;;;5042063;28;20580;-88
2022/04/28 07:15:22;;;;;;;15.95;5.90;;;7.30;95.90;;;;;;5040405;28;20025;-87
2022/04/28 07:17:48;;;;;;;10.75;6.20;;;7.40;95.90;;;;;;5045398;28;20028;-88
2022/04/28 07:20:14;;;;;;;14.20;5.30;;;7.40;95.80;;;;;;5039263;28;20470;-88
2022/04/28 07:22:40;;;;;;;9.75;5.10;;;7.40;95.80;;;;;;5068244;28;20094;-88
2022/04/28 07:25:06;;;;;;;13.63;5.72;;;7.40;95.80;;;;;;5041739;28;20024;-88
2022/04/28 07:27:32;;;;;;;12.07;5.72;;;7.50;95.80;;;;;;5039463;28;20086;-88
2022/04/28 07:29:57;;;;;;;16.92;5.85;;;7.50;95.70;;;;;;5040232;28;20025;-89
2022/04/28 07:32:23;;;;;;;12.40;5.47;;;7.50;95.80;;;;;;5039988;28;20029;-88
2022/04/28 07:34:49;;;;;;;12.80;6.45;;;7.50;95.70;;;;;;5036544;28;20025;-87
2022/04/28 07:37:14;;;;;;;9.98;5.88;;;7.50;95.70;;;;;;5036539;28;20021;-88
2022/04/28 07:39:40;;;;;;;18.13;6.75;;;7.60;95.70;;;;;;5061893;28;20025;-89
2022/04/28 07:42:06;;;;;;;15.13;6.60;;;7.60;95.70;;;;;;5038786;28;20017;-90
2022/04/28 07:44:32;;;;;;;20.38;7.07;;;7.60;95.70;;;;;;5037159;28;20036;-87
2022/04/28 07:46:57;;;;;;;12.25;6.55;;;7.60;95.70;;;;;;5035843;28;20028;-87
2022/04/28 07:49:26;;;;;;;13.98;7.43;;;7.60;95.70;;;;;;5038305;28;20037;-87
2022/04/28 07:51:52;;;;;;;14.40;6.40;;;7.60;95.60;;;;;;5019254;28;20446;-89
2022/04/28 07:54:17;;;;;;;12.45;7.28;;;7.60;95.60;;;;;;5007454;28;20076;-88
2022/04/28 07:56:45;;;;;;;15.15;7.85;;;7.70;95.60;;;;;;5012195;28;20022;-88
2022/04/28 07:59:12;;;;;;;15.65;6.93;;;7.80;95.60;;;;;;5012723;28;20025;-88
2022/04/28 08:01:37;;;;;;;19.02;7.25;;;7.80;95.50;;;;;;5012363;28;20030;-88
2022/04/28 08:04:03;;;;;;;17.35;7.68;;;7.80;95.40;;;;;;5012661;28;20030;-88
2022/04/28 08:06:29;;;;;;;16.40;8.15;;;7.80;95.40;;;;;;5012339;28;20030;-88
2022/04/28 08:08:55;;;;;;;23.35;7.22;;;7.90;95.40;;;;;;5012990;28;20026;-86
2022/04/28 08:11:21;;;;;;;18.85;7.72;;;7.90;95.40;;;;;;5015730;28;20033;-87
2022/04/28 08:13:46;;;;;;;11.95;6.68;;;7.90;95.30;;;;;;5013762;28;20075;-86
2022/04/28 08:16:12;;;;;;;11.77;6.78;;;7.90;95.30;;;;;;5012898;28;20022;-87
2022/04/28 08:18:39;;;;;;;14.00;6.97;;;7.90;95.30;;;;;;5011393;28;20474;-87
2022/04/28 08:21:08;;;;;;;16.35;6.40;;;7.90;95.30;;;;;;5011189;28;20030;-86
2022/04/28 08:23:36;;;;;;;9.85;5.88;;;7.90;95.20;;;;;;5011689;28;20407;-88
2022/04/28 08:26:02;;;;;;;11.95;6.20;;;7.90;95.20;;;;;;5011741;28;20042;-87
2022/04/28 08:28:28;;;;;;;19.08;6.80;;;7.90;95.20;;;;;;5012503;28;20112;-86
2022/04/28 08:30:54;;;;;;;16.13;7.00;;;7.90;95.30;;;;;;5010879;28;20118;-86
2022/04/28 08:33:23;;;;;;;15.60;7.60;;;7.90;95.30;;;;;;5011303;28;20080;-87
2022/04/28 08:35:49;;;;;;;12.43;6.35;;;7.90;95.30;;;;;;5011214;28;20100;-89
2022/04/28 08:38:18;;;;;;;14.57;6.55;;;7.90;95.30;;;;;;5011882;28;20518;-84
2022/04/28 08:40:46;;;;;;;15.52;6.82;;;7.90;95.30;;;;;;5012053;28;20026;-87
2022/04/28 08:43:14;;;;;;;12.13;6.10;;;8.00;95.30;;;;;;5011470;28;20022;-88
2022/04/28 08:48:30;;;;;;;14.00;5.78;;;8.10;95.30;;;;;;5013542;28;20514;-86
2022/04/28 08:51:01;;;;;;;12.13;5.85;;;8.10;95.20;;;;;;5012991;28;20076;-87
2022/04/28 08:53:27;;;;;;;15.38;5.95;;;8.10;95.10;;;;;;5022527;28;20048;-86
2022/04/28 08:55:57;;;;;;;16.88;6.65;;;8.20;95.10;;;;;;5020880;28;20042;-86
2022/04/28 08:58:24;;;;;;;13.75;7.03;;;8.20;95.00;;;;;;5015779;28;20062;-87
2022/04/28 09:00:51;;;;;;;10.15;6.18;;;8.20;94.90;;;;;;5028607;28;20483;-87
2022/04/28 09:03:16;;;;;;;12.23;6.50;;;8.20;94.90;;;;;;5026709;28;20033;-88
2022/04/28 09:05:43;;;;;;;13.60;6.38;;;8.20;94.80;;;;;;5024522;28;20021;-89
2022/04/28 09:08:08;;;;;;;16.58;7.00;;;8.20;94.70;;;;;;5026515;28;20475;-86
2022/04/28 09:10:34;;;;;;;11.77;6.78;;;8.20;94.70;;;;;;5023558;28;20017;-87
2022/04/28 09:15:51;;;;;;;13.55;6.57;;;8.20;94.70;;;;;;5025657;28;20087;-87
2022/04/28 09:18:19;;;;;;;10.27;6.43;;;8.30;94.70;;;;;;5020328;28;20037;-87
2022/04/28 09:20:46;;;;;;;14.32;6.22;;;8.30;94.60;;;;;;5025092;28;20030;-87
2022/04/28 09:23:13;;;;;;;15.70;7.03;;;8.30;94.50;;;;;;5012707;28;20029;-87
2022/04/28 09:25:43;;;;;;;18.40;8.15;;;8.30;94.40;;;;;;5026549;28;20022;-87
2022/04/28 09:28:10;;;;;;;19.97;8.57;;;8.40;94.40;;;;;;5024302;28;20029;-87
2022/04/28 09:30:50;;;;;;;10.20;7.13;;;8.40;94.30;;;;;;5020194;28;20276;-88
2022/04/28 09:33:23;;;;;;;13.17;6.33;;;8.50;94.10;;;;;;5023160;28;20160;-87
2022/04/28 09:35:51;;;;;;;16.30;6.72;;;8.50;94.10;;;;;;5025030;28;20265;-86
2022/04/28 09:38:17;;;;;;;12.43;7.63;;;8.50;94.00;;;;;;5018197;28;20021;-87
2022/04/28 09:43:40;;;;;;;15.07;7.68;;;8.60;93.80;;;;;;4995983;28;20164;-87
2022/04/28 09:46:07;;;;;;;17.52;7.68;;;8.70;93.80;;;;;;5023116;28;20057;-88
2022/04/28 09:48:33;;;;;;;13.18;8.23;;;8.70;93.70;;;;;;5022930;28;20042;-88
2022/04/28 09:51:06;;;;;;;17.17;8.02;;;8.70;93.60;;;;;;5021785;28;20081;-87
2022/04/28 09:53:33;;;;;;;13.25;7.63;;;8.80;93.50;;;;;;5027627;28;20025;-87
2022/04/28 09:56:01;;;;;;;12.88;7.30;;;8.80;93.40;;;;;;5025185;28;20029;-87
2022/04/28 09:58:28;;;;;;;14.10;7.60;;;8.80;93.30;;;;;;5028175;28;20053;-86
2022/04/28 10:01:00;;;;;;;14.35;7.93;;;8.80;93.20;;;;;;5035523;28;20037;-87
2022/04/28 10:03:28;;;;;;;12.07;8.55;;;8.90;93.00;;;;;;5035747;28;20057;-87
2022/04/28 10:05:55;;;;;;;17.15;8.52;;;8.90;92.80;;;;;;5032114;28;20112;-88
2022/04/28 10:08:21;;;;;;;17.63;9.00;;;8.90;92.70;;;;;;5031821;28;20017;-89
2022/04/28 10:10:50;;;;;;;14.95;8.70;;;8.90;92.60;;;;;;5021527;28;20044;-88
2022/04/28 10:13:16;;;;;;;16.58;8.77;;;8.90;92.70;;;;;;5020561;28;20033;-88
2022/04/28 10:15:42;;;;;;;17.05;9.30;;;9.00;92.60;;;;;;5018347;28;20026;-90
2022/04/28 10:18:12;;;;;;;17.13;9.75;;;9.10;92.60;;;;;;5018406;28;20045;-88
2022/04/28 10:20:45;;;;;;;20.20;9.32;;;9.10;92.40;;;;;;5015788;28;20028;-88
2022/04/28 10:23:14;;;;;;;17.15;9.90;;;9.20;92.30;;;;;;5022776;28;20087;-87
2022/04/28 10:34:14;;;;;;;16.13;8.68;;;9.10;91.90;;;;;;5024308;28;20036;-88
2022/04/28 10:36:56;;;;;;;16.23;8.45;;;9.20;91.90;;;;;;5024184;28;20493;-88
2022/04/28 10:39:43;;;;;;;21.00;8.85;;;9.20;91.70;;;;;;5033681;28;20033;-88
2022/04/28 10:42:13;;;;;;;17.20;8.52;;;9.20;91.50;;;;;;5009583;28;20049;-88
2022/04/28 10:44:47;;;;;;;17.23;8.52;;;9.20;91.60;;;;;;5012741;28;20032;-90
2022/04/28 10:47:34;;;;;;;16.15;8.05;;;9.10;91.40;;;;;;5021655;28;20541;-88
2022/04/28 10:49:59;;;;;;;18.05;8.52;;;9.10;91.80;;;;;;5012476;28;20041;-88
2022/04/28 10:52:29;;;;;;;18.20;8.15;;;9.10;91.50;;;;;;5010061;28;20069;-87
2022/04/28 10:54:59;;;;;;;16.95;9.13;;;9.10;91.50;;;;;;4996577;28;20173;-88
2022/04/28 10:57:36;;;;;;;12.75;8.20;;;9.10;91.50;;;;;;5010322;28;20029;-88
2022/04/28 11:00:04;;;;;;;13.98;8.60;;;9.10;91.40;;;;;;5011607;28;20569;-88
2022/04/28 11:02:34;;;;;;;15.55;8.02;;;9.20;91.40;;;;;;5012210;28;20475;-88
2022/04/28 11:05:05;;;;;;;12.25;7.22;;;9.20;91.20;;;;;;5009779;28;20554;-88
2022/04/28 11:07:32;;;;;;;16.10;7.30;;;9.10;91.10;;;;;;5011702;28;20033;-88
2022/04/28 11:10:00;;;;;;;20.50;7.85;;;9.10;91.20;;;;;;5011709;28;20483;-88
2022/04/28 11:12:37;;;;;;;15.20;7.93;;;9.20;91.30;;;;;;5011940;28;20420;-88
2022/04/28 11:15:10;;;;;;;13.60;7.30;;;9.20;91.30;;;;;;5011502;28;20022;-90
2022/04/28 11:17:37;;;;;;;14.63;6.90;;;9.30;91.40;;;;;;5005336;28;20026;-87
2022/04/28 11:20:11;;;;;;;14.18;6.90;;;9.30;91.30;;;;;;5012489;28;20018;-88
2022/04/28 11:22:48;;;;;;;16.35;7.68;;;9.40;91.20;;;;;;5009729;28;20030;-88
2022/04/28 11:25:15;;;;;;;15.48;6.80;;;9.40;91.20;;;;;;5009326;28;20113;-87
2022/04/28 11:27:43;;;;;;;12.70;6.70;;;9.40;91.10;;;;;;5012080;28;20030;-88
2022/04/28 11:30:35;;;;;;;12.93;7.30;;;9.40;91.00;;;;;;5011990;28;20080;-87
2022/04/28 11:33:00;;;;;;;15.50;6.40;;;9.50;90.80;;;;;;5004890;28;20041;-87
2022/04/28 11:35:40;;;;;;;13.98;6.95;;;9.50;90.90;;;;;;5011919;28;20022;-87
2022/04/28 11:38:08;;;;;;;17.95;8.00;;;9.50;90.80;;;;;;5011747;28;20109;-86
2022/04/28 11:40:36;;;;;;;12.80;6.88;;;9.60;90.80;;;;;;5010459;28;20046;-86
2022/04/28 11:43:05;;;;;;;20.58;6.85;;;9.60;90.80;;;;;;5011929;28;20040;-86
2022/04/28 11:45:32;;;;;;;14.10;6.78;;;9.60;90.70;;;;;;5012982;28;20029;-86
2022/04/28 11:48:00;;;;;;;9.32;6.28;;;9.70;90.70;;;;;;5012858;28;20029;-86
2022/04/28 11:50:30;;;;;;;15.13;7.32;;;9.70;90.60;;;;;;5012217;28;20034;-88
2022/04/28 11:53:00;;;;;;;14.68;6.63;;;9.70;90.40;;;;;;5015643;28;20046;-87
2022/04/28 11:55:29;;;;;;;14.85;7.15;;;9.70;90.40;;;;;;5011740;28;20049;-87
2022/04/28 11:57:55;;;;;;;16.23;7.05;;;9.70;90.40;;;;;;5012128;28;20405;-87
2022/04/28 12:00:25;;;;;;;17.40;7.47;;;9.80;90.40;;;;;;5012535;28;20030;-87
2022/04/28 12:02:52;;;;;;;13.53;7.07;;;9.70;90.40;;;;;;5015069;28;20056;-87
2022/04/28 12:05:23;;;;;;;22.50;7.72;;;9.80;90.40;;;;;;5016943;28;20033;-87
2022/04/28 12:07:53;;;;;;;12.63;6.30;;;9.70;90.30;;;;;;5013076;28;20032;-87
2022/04/28 12:16:17;;;;;;;16.98;6.55;;;9.60;90.40;;;;;;5010616;28;20033;-88
2022/04/28 12:21:36;;;;;;;17.00;7.00;;;9.60;90.70;;;;;;5011342;28;20463;-87
2022/04/28 12:24:11;;;;;;;16.35;7.05;;;9.70;90.70;;;;;;5034897;28;20029;-89
2022/04/28 12:26:41;;;;;;;23.63;7.30;;;9.80;90.50;;;;;;5009342;28;20088;-88
2022/04/28 12:29:08;;;;;;;12.97;7.07;;;9.80;90.40;;;;;;5011994;28;20029;-89
2022/04/28 12:31:34;;;;;;;17.70;7.20;;;9.80;90.30;;;;;;5011330;28;20321;-88
2022/04/28 12:34:09;;;;;;;21.95;7.28;;;9.80;90.30;;;;;;5013633;28;20059;-89
2022/04/28 12:36:56;;;;;;;21.65;6.45;;;9.80;90.30;;;;;;5013238;28;20049;-88
2022/04/28 12:39:23;;;;;;;18.30;6.53;;;9.70;90.30;;;;;;5013801;28;20387;-89
2022/04/28 12:41:50;;;;;;;16.92;5.93;;;9.70;90.40;;;;;;5014391;28;20038;-88
2022/04/28 12:44:16;;;;;;;16.73;6.47;;;9.70;90.30;;;;;;5014905;28;20025;-88
2022/04/28 12:46:45;;;;;;;12.00;5.75;;;9.70;90.40;;;;;;5016003;28;20100;-88
2022/04/28 12:49:12;;;;;;;13.88;5.88;;;9.80;90.50;;;;;;5016358;28;20053;-87
2022/04/28 12:51:42;;;;;;;13.27;5.40;;;9.80;90.40;;;;;;5007657;28;20073;-88
2022/04/28 12:54:14;;;;;;;16.70;5.30;;;9.80;90.40;;;;;;5026737;28;20049;-88
2022/04/28 12:56:44;;;;;;;13.43;6.00;;;9.90;90.40;;;;;;5025854;28;20021;-87
2022/04/28 12:59:13;;;;;;;18.70;6.40;;;10.00;90.40;;;;;;5026916;28;20018;-87
2022/04/28 13:01:40;;;;;;;11.40;5.35;;;10.00;90.20;;;;;;5025532;28;20068;-88
2022/04/28 13:04:12;;;;;;;18.25;6.07;;;10.00;90.30;;;;;;5020657;28;20088;-87
2022/04/28 13:06:40;;;;;;;14.07;5.57;;;10.00;90.20;;;;;;5019205;28;20038;-86
2022/04/28 13:09:07;;;;;;;14.52;5.80;;;10.00;90.20;;;;;;5017935;28;20022;-87
2022/04/28 13:11:35;;;;;;;20.73;6.68;;;9.90;90.30;;;;;;5025777;28;20168;-87
2022/04/28 13:14:04;;;;;;;16.70;6.20;;;9.90;90.30;;;;;;5023034;28;20059;-87
2022/04/28 13:16:30;;;;;;;15.90;6.40;;;9.80;90.30;;;;;;5022448;28;20420;-87
2022/04/28 13:18:56;;;;;;;13.20;6.85;;;9.80;90.40;;;;;;5026141;28;20029;-86
2022/04/28 13:21:23;;;;;;;16.67;6.70;;;9.90;90.40;;;;;;5023604;28;20112;-88
2022/04/28 13:23:49;;;;;;;15.95;6.07;;;9.90;90.40;;;;;;5017396;28;20060;-88
2022/04/28 13:26:17;;;;;;;14.38;6.40;;;9.90;90.40;;;;;;5022827;28;20067;-87
2022/04/28 13:28:44;;;;;;;12.57;5.85;;;9.90;90.40;;;;;;5016711;28;20029;-86
2022/04/28 13:31:12;;;;;;;20.92;6.40;;;9.90;90.40;;;;;;5013288;28;20467;-87
2022/04/28 13:33:39;;;;;;;19.75;6.72;;;9.90;90.40;;;;;;5013406;28;20507;-87